createdAt,value
2018-03-15T00:00:37.427Z,6.30
2018-03-15T00:03:11.554Z,6.28
2018-03-15T00:05:40.719Z,6.31
2018-03-15T00:08:09.540Z,6.33
2018-03-15T00:10:38.717Z,6.32
2018-03-15T00:13:07.852Z,6.33
2018-03-15T00:15:38.508Z,6.32
2018-03-15T00:18:09.061Z,6.31
2018-03-15T00:20:39.430Z,6.31
2018-03-15T00:23:10.041Z,6.32
2018-03-15T00:25:40.827Z,6.30
2018-03-15T00:28:11.772Z,6.28
2018-03-15T00:30:43.108Z,6.26
2018-03-15T00:33:13.732Z,6.24
2018-03-15T00:35:45.401Z,6.23
2018-03-15T00:38:15.973Z,6.23
2018-03-15T00:40:46.358Z,6.23
2018-03-15T00:43:16.993Z,6.24
2018-03-15T00:45:47.821Z,6.23
2018-03-15T00:48:19.368Z,6.25
2018-03-15T00:50:50.033Z,6.25
2018-03-15T00:53:20.698Z,6.25
2018-03-15T00:55:52.028Z,6.24
2018-03-15T00:58:22.724Z,6.24
2018-03-15T01:00:54.432Z,6.24
2018-03-15T01:03:25.048Z,6.25
2018-03-15T01:05:55.382Z,6.25
2018-03-15T01:08:26.343Z,6.24
2018-03-15T01:10:57.012Z,6.24
2018-03-15T01:13:27.340Z,6.24
2018-03-15T01:15:58.005Z,6.22
2018-03-15T01:18:28.761Z,6.07
2018-03-15T01:21:00.158Z,6.20
2018-03-15T01:23:30.726Z,6.19
2018-03-15T01:26:02.095Z,6.20
2018-03-15T01:28:32.665Z,6.20
2018-03-15T01:31:04.109Z,6.20
2018-03-15T01:33:34.668Z,6.18
2018-03-15T01:36:06.071Z,6.17
2018-03-15T01:38:36.948Z,6.17
2018-03-15T01:41:07.747Z,6.17
2018-03-15T01:43:39.031Z,6.14
2018-03-15T01:46:09.715Z,5.95
2018-03-15T01:48:40.970Z,6.11
2018-03-15T01:51:11.733Z,6.12
2018-03-15T01:53:43.714Z,6.12
2018-03-15T01:56:14.485Z,6.13
2018-03-15T01:58:45.008Z,6.12
2018-03-15T02:01:15.866Z,6.12
2018-03-15T02:03:46.730Z,6.12
2018-03-15T02:06:18.224Z,6.10
2018-03-15T02:08:48.838Z,6.10
2018-03-15T02:11:20.236Z,6.09
2018-03-15T02:13:50.841Z,6.10
2018-03-15T02:16:21.838Z,6.09
2018-03-15T02:18:52.300Z,6.09
2018-03-15T02:21:22.951Z,6.08
2018-03-15T02:23:53.752Z,6.07
2018-03-15T02:26:25.201Z,6.07
2018-03-15T02:28:55.802Z,6.05
2018-03-15T02:31:26.460Z,6.05
2018-03-15T02:33:57.108Z,6.06
2018-03-15T02:36:27.837Z,6.05
2018-03-15T02:38:58.448Z,6.06
2018-03-15T02:41:29.139Z,6.04
2018-03-15T02:43:59.878Z,6.04
2018-03-15T02:46:30.914Z,6.05
2018-03-15T02:49:01.712Z,6.05
2018-03-15T02:51:33.109Z,6.03
2018-03-15T02:54:03.718Z,6.04
2018-03-15T02:56:35.174Z,6.03
2018-03-15T02:59:05.812Z,6.02
2018-03-15T03:01:36.369Z,6.02
2018-03-15T03:04:06.954Z,5.89
2018-03-15T03:06:37.799Z,6.02
2018-03-15T03:09:08.733Z,6.02
2018-03-15T03:11:40.092Z,6.01
2018-03-15T03:14:10.302Z,6.02
2018-03-15T03:16:41.075Z,6.00
2018-03-15T03:19:11.740Z,6.00
2018-03-15T03:21:43.221Z,5.99
2018-03-15T03:24:13.753Z,5.98
2018-03-15T03:26:44.310Z,5.98
2018-03-15T03:29:14.862Z,5.96
2018-03-15T03:31:45.522Z,5.91
2018-03-15T03:34:16.081Z,5.98
2018-03-15T03:36:46.865Z,5.97
2018-03-15T03:39:17.779Z,5.97
2018-03-15T03:41:48.389Z,5.96
2018-03-15T03:44:19.159Z,5.96
2018-03-15T03:46:50.519Z,5.95
2018-03-15T03:49:21.171Z,5.92
2018-03-15T03:51:51.839Z,5.94
2018-03-15T03:54:22.362Z,5.94
2018-03-15T03:56:53.024Z,5.93
2018-03-15T03:59:23.763Z,5.92
2018-03-15T04:01:55.138Z,5.92
2018-03-15T04:04:25.782Z,5.89
2018-03-15T04:06:57.114Z,5.92
2018-03-15T04:09:27.773Z,5.92
2018-03-15T04:11:57.743Z,5.91
2018-03-15T04:14:28.368Z,5.92
2018-03-15T04:16:59.312Z,5.90
2018-03-15T04:19:30.151Z,5.91
2018-03-15T04:22:01.074Z,5.91
2018-03-15T04:24:32.303Z,5.90
2018-03-15T04:27:03.228Z,5.89
2018-03-15T04:29:34.202Z,5.88
2018-03-15T04:32:05.702Z,5.89
2018-03-15T04:34:36.290Z,5.83
2018-03-15T04:37:07.133Z,5.84
2018-03-15T04:39:38.038Z,5.86
2018-03-15T04:42:09.389Z,5.85
2018-03-15T04:44:40.370Z,5.84
2018-03-15T04:47:11.412Z,5.84
2018-03-15T04:49:42.449Z,5.69
2018-03-15T04:52:13.369Z,5.83
2018-03-15T04:54:44.259Z,5.83
2018-03-15T04:57:15.232Z,5.68
2018-03-15T04:59:46.100Z,5.81
2018-03-15T05:02:17.789Z,5.80
2018-03-15T05:04:48.726Z,5.74
2018-03-15T05:07:20.115Z,5.74
2018-03-15T05:09:50.946Z,5.73
2018-03-15T05:12:22.256Z,5.73
2018-03-15T05:14:52.888Z,5.71
2018-03-15T05:17:23.752Z,5.72
2018-03-15T05:19:55.024Z,5.71
2018-03-15T05:22:25.807Z,5.67
2018-03-15T05:24:56.750Z,5.65
2018-03-15T05:27:28.210Z,5.66
2018-03-15T05:29:58.805Z,5.64
2018-03-15T05:32:37.643Z,5.65
2018-03-15T05:35:07.067Z,5.64
2018-03-15T05:37:36.320Z,5.63
2018-03-15T05:40:05.514Z,5.63
2018-03-15T05:42:34.610Z,5.64
2018-03-15T05:45:04.471Z,5.64
2018-03-15T05:47:34.367Z,5.65
2018-03-15T05:50:04.724Z,5.68
2018-03-15T05:52:36.041Z,5.63
2018-03-15T05:55:06.801Z,5.65
2018-03-15T05:57:37.762Z,5.63
2018-03-15T06:00:08.776Z,5.61
2018-03-15T06:02:40.181Z,5.59
2018-03-15T06:05:10.870Z,5.55
2018-03-15T06:07:41.717Z,5.57
2018-03-15T06:10:13.189Z,5.57
2018-03-15T06:12:43.744Z,5.54
2018-03-15T06:15:14.767Z,5.52
2018-03-15T06:17:45.693Z,5.52
2018-03-15T06:20:16.736Z,5.55
2018-03-15T06:22:47.337Z,5.54
2018-03-15T06:25:18.048Z,5.58
2018-03-15T06:27:48.784Z,5.57
2018-03-15T06:30:19.776Z,5.56
2018-03-15T06:32:51.004Z,5.61
2018-03-15T06:35:21.752Z,5.55
2018-03-15T06:37:52.230Z,5.46
2018-03-15T06:40:22.884Z,5.45
2018-03-15T06:42:53.798Z,5.58
2018-03-15T06:45:24.704Z,5.65
2018-03-15T06:47:55.313Z,5.63
2018-03-15T06:50:25.894Z,5.58
2018-03-15T06:52:56.786Z,5.57
2018-03-15T06:55:27.688Z,5.56
2018-03-15T06:57:59.189Z,5.62
2018-03-15T07:00:29.714Z,5.58
2018-03-15T07:03:00.336Z,5.65
2018-03-15T07:05:30.908Z,5.59
2018-03-15T07:08:01.749Z,5.54
2018-03-15T07:10:33.068Z,5.60
2018-03-15T07:13:03.882Z,5.57
2018-03-15T07:15:34.730Z,5.59
2018-03-15T07:18:05.728Z,5.56
2018-03-15T07:20:36.654Z,5.67
2018-03-15T07:23:07.293Z,5.66
2018-03-15T07:25:37.845Z,5.51
2018-03-15T07:28:08.874Z,5.51
2018-03-15T07:30:39.790Z,5.52
2018-03-15T07:33:10.764Z,5.57
2018-03-15T07:35:41.260Z,5.56
2018-03-15T07:38:12.007Z,5.56
2018-03-15T07:40:42.717Z,5.63
2018-03-15T07:43:14.125Z,5.60
2018-03-15T07:45:44.768Z,5.63
2018-03-15T07:48:15.777Z,5.69
2018-03-15T07:50:46.309Z,5.62
2018-03-15T07:53:16.946Z,5.62
2018-03-15T07:55:46.685Z,5.69
2018-03-15T07:58:17.800Z,5.75
2018-03-15T08:00:48.672Z,5.84
2018-03-15T08:03:20.110Z,5.83
2018-03-15T08:05:50.672Z,5.83
2018-03-15T08:08:22.055Z,5.81
2018-03-15T08:10:52.392Z,5.84
2018-03-15T08:13:22.986Z,5.90
2018-03-15T08:15:54.222Z,5.94
2018-03-15T08:18:24.845Z,6.00
2018-03-15T08:20:55.333Z,6.01
2018-03-15T08:23:27.089Z,5.97
2018-03-15T08:25:57.700Z,6.01
2018-03-15T08:28:29.055Z,6.06
2018-03-15T08:30:59.664Z,5.91
2018-03-15T08:33:31.252Z,5.98
2018-03-15T08:36:02.085Z,5.89
2018-03-15T08:38:33.058Z,5.89
2018-03-15T08:41:03.788Z,5.93
2018-03-15T08:43:35.295Z,5.93
2018-03-15T08:46:05.853Z,6.02
2018-03-15T08:48:36.748Z,6.09
2018-03-15T08:51:08.024Z,6.04
2018-03-15T08:53:38.732Z,6.11
2018-03-15T08:56:09.667Z,6.14
2018-03-15T08:58:41.102Z,6.17
2018-03-15T09:01:11.352Z,6.22
2018-03-15T09:03:42.000Z,6.10
2018-03-15T09:06:12.822Z,6.09
2018-03-15T09:08:43.879Z,6.09
2018-03-15T09:11:14.764Z,6.12
2018-03-15T09:13:46.097Z,6.12
2018-03-15T09:16:16.309Z,6.18
2018-03-15T09:18:46.912Z,6.15
2018-03-15T09:21:17.705Z,6.17
2018-03-15T09:23:49.117Z,6.17
2018-03-15T09:26:20.211Z,6.12
2018-03-15T09:28:50.912Z,6.10
2018-03-15T09:31:21.437Z,6.11
2018-03-15T09:33:52.125Z,6.06
2018-03-15T09:36:22.888Z,6.13
2018-03-15T09:38:53.862Z,6.24
2018-03-15T09:41:24.655Z,6.20
2018-03-15T09:43:55.252Z,6.26
2018-03-15T09:46:25.826Z,6.27
2018-03-15T09:48:56.884Z,6.33
2018-03-15T09:51:27.716Z,6.44
2018-03-15T09:53:59.200Z,6.48
2018-03-15T09:56:30.076Z,6.50
2018-03-15T09:59:00.380Z,6.50
2018-03-15T10:01:30.925Z,6.56
2018-03-15T10:04:01.420Z,6.58
2018-03-15T10:06:32.013Z,6.55
2018-03-15T10:09:02.922Z,6.48
2018-03-15T10:11:34.637Z,6.53
2018-03-15T10:14:05.232Z,6.58
2018-03-15T10:16:35.812Z,6.68
2018-03-15T10:19:07.560Z,6.63
2018-03-15T10:21:38.068Z,6.67
2018-03-15T10:24:08.788Z,6.62
2018-03-15T10:26:39.764Z,6.63
2018-03-15T10:29:11.406Z,6.60
2018-03-15T10:31:41.836Z,6.63
2018-03-15T10:34:12.351Z,6.70
2018-03-15T10:36:43.080Z,6.79
2018-03-15T10:39:13.260Z,6.64
2018-03-15T10:41:43.842Z,6.64
2018-03-15T10:44:14.756Z,6.66
2018-03-15T10:46:46.061Z,6.75
2018-03-15T10:49:16.853Z,6.75
2018-03-15T10:51:47.431Z,6.85
2018-03-15T10:54:18.125Z,6.87
2018-03-15T10:56:48.886Z,6.92
2018-03-15T10:59:19.784Z,6.90
2018-03-15T11:01:50.549Z,7.00
2018-03-15T11:07:30.544Z,7.17
2018-03-15T11:09:59.672Z,7.24
2018-03-15T11:12:28.387Z,7.19
2018-03-15T11:14:57.350Z,7.28
2018-03-15T11:17:26.367Z,7.29
2018-03-15T11:19:55.396Z,7.31
2018-03-15T11:22:24.288Z,7.33
2018-03-15T11:24:53.403Z,7.39
2018-03-15T11:27:22.313Z,7.38
2018-03-15T11:29:51.321Z,7.34
2018-03-15T11:32:20.508Z,7.45
2018-03-15T11:34:49.552Z,7.47
2018-03-15T11:37:18.550Z,7.32
2018-03-15T11:39:47.610Z,7.49
2018-03-15T11:42:20.745Z,7.57
2018-03-15T11:44:49.933Z,7.55
2018-03-15T11:47:18.817Z,7.62
2018-03-15T11:49:48.210Z,7.70
2018-03-15T11:52:17.453Z,7.76
2018-03-15T11:54:47.089Z,7.62
2018-03-15T11:57:16.212Z,7.71
2018-03-15T11:59:45.977Z,7.69
2018-03-15T12:02:15.144Z,7.75
2018-03-15T12:04:44.469Z,7.76
2018-03-15T12:07:14.368Z,7.74
2018-03-15T12:09:44.949Z,7.83
2018-03-15T12:12:15.803Z,7.81
2018-03-15T12:14:46.756Z,7.80
2018-03-15T12:17:17.788Z,7.84
2018-03-15T12:19:48.769Z,7.84
2018-03-15T12:22:20.119Z,7.92
2018-03-15T12:24:50.723Z,7.91
2018-03-15T12:27:21.749Z,7.92
2018-03-15T12:29:53.088Z,7.93
2018-03-15T12:32:23.901Z,7.98
2018-03-15T12:34:54.749Z,8.07
2018-03-15T12:37:25.236Z,8.07
2018-03-15T12:39:55.730Z,8.12
2018-03-15T12:42:27.124Z,8.15
2018-03-15T12:44:57.747Z,8.19
2018-03-15T12:47:29.114Z,8.24
2018-03-15T12:49:59.395Z,8.30
2018-03-15T12:52:30.074Z,8.38
2018-03-15T12:55:00.709Z,8.45
2018-03-15T12:57:31.368Z,8.47
2018-03-15T13:00:01.919Z,8.48
2018-03-15T13:02:32.341Z,8.43
2018-03-15T13:05:02.898Z,8.41
2018-03-15T13:07:33.745Z,8.48
2018-03-15T13:10:04.796Z,8.47
2018-03-15T13:12:35.740Z,8.37
2018-03-15T13:15:06.735Z,8.39
2018-03-15T13:17:37.370Z,8.36
2018-03-15T13:20:07.993Z,8.39
2018-03-15T13:22:38.821Z,8.50
2018-03-15T13:25:09.661Z,8.48
2018-03-15T13:27:41.116Z,8.57
2018-03-15T13:30:11.367Z,8.60
2018-03-15T13:32:42.048Z,8.70
2018-03-15T13:35:12.692Z,8.76
2018-03-15T13:37:44.040Z,8.85
2018-03-15T13:40:14.693Z,8.89
2018-03-15T13:42:45.240Z,8.88
2018-03-15T13:45:15.860Z,8.80
2018-03-15T13:47:46.415Z,8.75
2018-03-15T13:50:17.047Z,8.80
2018-03-15T13:52:47.773Z,8.81
2018-03-15T13:55:18.632Z,8.74
2018-03-15T13:57:50.014Z,8.67
2018-03-15T14:00:20.732Z,8.65
2018-03-15T14:02:52.121Z,8.59
2018-03-15T14:05:22.745Z,8.65
2018-03-15T14:07:54.436Z,8.58
2018-03-15T14:10:25.716Z,8.46
2018-03-15T14:12:56.314Z,8.41
2018-03-15T14:15:26.058Z,8.56
2018-03-15T14:17:56.732Z,8.46
2018-03-15T14:20:27.657Z,8.43
2018-03-15T14:22:58.088Z,8.39
2018-03-15T14:25:28.749Z,8.41
2018-03-15T14:28:00.055Z,8.47
2018-03-15T14:30:30.733Z,8.49
2018-03-15T14:33:02.090Z,8.41
2018-03-15T14:35:32.765Z,8.36
2018-03-15T14:38:04.124Z,8.37
2018-03-15T14:40:34.784Z,8.28
2018-03-15T14:43:05.800Z,8.25
2018-03-15T14:45:36.774Z,8.31
2018-03-15T14:48:07.736Z,8.25
2018-03-15T14:50:38.224Z,8.25
2018-03-15T14:53:08.880Z,8.29
2018-03-15T14:55:39.758Z,8.21
2018-03-15T14:58:11.376Z,8.27
2018-03-15T15:00:41.965Z,8.23
2018-03-15T15:03:12.789Z,8.15
2018-03-15T15:05:43.680Z,8.23
2018-03-15T15:08:15.080Z,7.97
2018-03-15T15:10:45.376Z,8.06
2018-03-15T15:13:16.013Z,8.13
2018-03-15T15:15:46.816Z,8.10
2018-03-15T15:18:18.155Z,8.02
2018-03-15T15:20:48.784Z,8.09
2018-03-15T15:23:20.497Z,7.86
2018-03-15T15:25:51.120Z,7.99
2018-03-15T15:28:21.860Z,7.94
2018-03-15T15:30:52.694Z,7.86
2018-03-15T15:33:24.119Z,7.84
2018-03-15T15:35:54.732Z,7.90
2018-03-15T15:38:26.145Z,7.82
2018-03-15T15:40:56.680Z,7.81
2018-03-15T15:43:29.027Z,7.80
2018-03-15T15:48:39.430Z,7.76
2018-03-15T15:51:08.551Z,7.72
2018-03-15T15:53:37.660Z,7.63
2018-03-15T15:56:07.154Z,7.60
2018-03-15T15:58:36.274Z,7.62
2018-03-15T16:01:05.391Z,7.65
2018-03-15T16:03:34.602Z,7.64
2018-03-15T16:06:04.320Z,7.57
2018-03-15T16:08:35.127Z,7.57
2018-03-15T16:11:04.998Z,7.54
2018-03-15T16:13:35.856Z,7.55
2018-03-15T16:16:06.648Z,7.59
2018-03-15T16:18:38.068Z,7.51
2018-03-15T16:21:08.698Z,7.46
2018-03-15T16:23:40.100Z,7.42
2018-03-15T16:26:10.705Z,7.34
2018-03-15T16:28:42.098Z,7.36
2018-03-15T16:31:12.267Z,7.36
2018-03-15T16:33:42.902Z,7.42
2018-03-15T16:36:13.820Z,7.37
2018-03-15T16:38:45.204Z,7.23
2018-03-15T16:41:15.791Z,7.38
2018-03-15T16:43:47.158Z,7.20
2018-03-15T16:46:17.344Z,7.30
2018-03-15T16:48:47.969Z,7.20
2018-03-15T16:51:18.757Z,7.21
2018-03-15T16:53:49.745Z,7.27
2018-03-15T16:56:21.002Z,7.21
2018-03-15T16:58:51.849Z,7.19
2018-03-15T17:01:23.433Z,7.16
2018-03-15T17:03:54.758Z,7.19
2018-03-15T17:06:25.266Z,7.13
2018-03-15T17:08:55.841Z,7.12
2018-03-15T17:11:26.643Z,7.19
2018-03-15T17:13:57.235Z,7.14
2018-03-15T17:16:27.879Z,7.18
2018-03-15T17:18:58.384Z,7.14
2018-03-15T17:21:28.944Z,6.98
2018-03-15T17:23:59.840Z,7.10
2018-03-15T17:26:30.813Z,7.07
2018-03-15T17:29:01.988Z,7.08
2018-03-15T17:31:32.542Z,7.08
2018-03-15T17:34:03.243Z,6.95
2018-03-15T17:36:33.985Z,7.06
2018-03-15T17:39:04.320Z,7.04
2018-03-15T17:41:36.050Z,6.97
2018-03-15T17:44:06.865Z,6.94
2018-03-15T17:46:37.707Z,6.90
2018-03-15T17:49:09.273Z,6.93
2018-03-15T17:51:39.942Z,6.77
2018-03-15T17:54:10.647Z,6.82
2018-03-15T17:56:41.191Z,6.67
2018-03-15T17:59:11.875Z,6.64
2018-03-15T18:01:42.997Z,6.55
2018-03-15T18:04:14.050Z,6.57
2018-03-15T18:06:44.877Z,6.54
2018-03-15T18:09:15.474Z,6.56
2018-03-15T18:11:46.165Z,6.50
2018-03-15T18:14:17.016Z,6.57
2018-03-15T18:16:47.741Z,6.53
2018-03-15T18:19:19.111Z,6.39
2018-03-15T18:21:50.348Z,6.50
2018-03-15T18:24:21.145Z,6.52
2018-03-15T18:26:51.656Z,6.44
2018-03-15T18:29:22.199Z,6.49
2018-03-15T18:31:52.849Z,6.51
2018-03-15T18:34:23.549Z,6.37
2018-03-15T18:36:53.596Z,6.38
2018-03-15T18:39:24.359Z,6.33
2018-03-15T18:41:55.321Z,6.28
2018-03-15T18:44:26.374Z,6.33
2018-03-15T18:46:57.045Z,6.32
2018-03-15T18:49:28.043Z,6.27
2018-03-15T18:51:59.068Z,6.22
2018-03-15T18:54:29.637Z,6.21
2018-03-15T18:57:00.341Z,5.98
2018-03-15T18:59:31.088Z,6.05
2018-03-15T19:02:01.901Z,6.01
2018-03-15T19:04:33.116Z,5.91
2018-03-15T19:07:03.480Z,5.97
2018-03-15T19:09:34.573Z,5.99
2018-03-15T19:12:05.207Z,6.02
2018-03-15T19:14:35.969Z,5.89
2018-03-15T19:17:07.191Z,5.94
2018-03-15T19:19:37.881Z,5.90
2018-03-15T19:22:08.466Z,5.90
2018-03-15T19:24:39.236Z,5.87
2018-03-15T19:27:10.200Z,5.89
2018-03-15T19:29:41.069Z,5.98
2018-03-15T19:32:12.784Z,5.91
2018-03-15T19:34:43.445Z,5.83
2018-03-15T19:37:14.221Z,5.88
2018-03-15T19:39:45.070Z,5.86
2018-03-15T19:42:15.847Z,5.92
2018-03-15T19:44:46.984Z,5.95
2018-03-15T19:47:17.850Z,5.96
2018-03-15T19:49:50.620Z,5.86
2018-03-15T19:52:21.504Z,6.01
2018-03-15T19:54:58.343Z,5.92
2018-03-15T19:57:27.589Z,5.98
2018-03-15T19:59:56.908Z,5.96
2018-03-15T20:02:26.253Z,5.93
2018-03-15T20:04:55.581Z,6.00
2018-03-15T20:07:26.153Z,6.12
2018-03-15T20:09:56.825Z,6.17
2018-03-15T20:12:27.484Z,6.07
2018-03-15T20:14:58.156Z,6.04
2018-03-15T20:17:28.935Z,5.90
2018-03-15T20:19:59.795Z,5.84
2018-03-15T20:22:36.194Z,5.79
2018-03-15T20:25:05.442Z,5.85
2018-03-15T20:27:40.350Z,5.76
2018-03-15T20:30:09.583Z,5.70
2018-03-15T20:32:44.541Z,5.76
2018-03-15T20:35:13.880Z,5.74
2018-03-15T20:37:43.188Z,5.82
2018-03-15T20:40:17.777Z,5.82
2018-03-15T20:42:47.116Z,5.74
2018-03-15T20:45:21.767Z,5.72
2018-03-15T20:47:56.523Z,5.75
2018-03-15T20:50:25.509Z,5.81
2018-03-15T20:52:54.865Z,5.82
2018-03-15T20:55:24.246Z,5.69
2018-03-15T20:57:53.548Z,5.84
2018-03-15T21:00:22.879Z,5.78
2018-03-15T21:02:52.119Z,5.60
2018-03-15T21:05:21.417Z,5.62
2018-03-15T21:07:50.695Z,5.59
2018-03-15T21:10:20.234Z,5.70
2018-03-15T21:12:49.506Z,5.71
2018-03-15T21:15:19.429Z,5.69
2018-03-15T21:17:50.216Z,5.72
2018-03-15T21:20:21.090Z,5.68
2018-03-15T21:22:53.322Z,5.63
2018-03-15T21:25:23.200Z,5.60
2018-03-15T21:27:53.903Z,5.58
2018-03-15T21:30:24.416Z,5.62
2018-03-15T21:32:55.306Z,5.53
2018-03-15T21:35:26.047Z,5.49
2018-03-15T21:37:56.846Z,5.41
2018-03-15T21:40:27.821Z,5.50
2018-03-15T21:42:58.822Z,5.39
2018-03-15T21:45:29.838Z,5.37
2018-03-15T21:48:00.759Z,5.31
2018-03-15T21:50:32.292Z,5.08
2018-03-15T21:53:03.036Z,5.25
2018-03-15T21:55:33.796Z,5.22
2018-03-15T21:58:07.727Z,5.22
2018-03-15T22:00:36.900Z,5.20
2018-03-15T22:03:06.179Z,5.22
2018-03-15T22:05:35.364Z,5.22
2018-03-15T22:08:07.167Z,5.15
2018-03-15T22:10:37.970Z,5.04
2018-03-15T22:13:08.836Z,4.92
2018-03-15T22:15:39.560Z,5.02
2018-03-15T22:18:10.288Z,5.00
2018-03-15T22:20:41.913Z,4.95
2018-03-15T22:23:12.573Z,4.98
2018-03-15T22:25:43.348Z,4.98
2018-03-15T22:28:13.133Z,5.00
2018-03-15T22:30:42.781Z,5.02
2018-03-15T22:33:14.504Z,5.08
2018-03-15T22:35:45.408Z,5.03
2018-03-15T22:38:17.206Z,5.05
2018-03-15T22:40:47.471Z,4.95
2018-03-15T22:43:19.112Z,4.95
2018-03-15T22:45:49.826Z,4.94
2018-03-15T22:48:20.910Z,4.88
2018-03-15T22:50:52.607Z,4.91
2018-03-15T22:53:22.218Z,4.91
2018-03-15T22:55:51.701Z,4.91
2018-03-15T22:58:22.092Z,4.86
2018-03-15T23:00:52.906Z,4.82
2018-03-15T23:03:24.427Z,4.78
2018-03-15T23:05:55.436Z,4.76
2018-03-15T23:08:26.368Z,4.78
2018-03-15T23:10:57.356Z,4.78
2018-03-15T23:13:28.361Z,4.70
2018-03-15T23:15:59.328Z,4.67
2018-03-15T23:18:30.260Z,4.61
2018-03-15T23:21:01.240Z,4.56
2018-03-15T23:23:32.167Z,4.64
2018-03-15T23:26:02.865Z,4.56
2018-03-15T23:28:34.352Z,4.61
2018-03-15T23:31:07.892Z,4.57
2018-03-15T23:33:38.232Z,4.57
2018-03-15T23:36:08.868Z,4.53
2018-03-15T23:38:42.240Z,4.47
2018-03-15T23:41:13.972Z,4.50
2018-03-15T23:43:44.848Z,4.40
2018-03-15T23:46:14.240Z,4.44
2018-03-15T23:48:43.521Z,4.34
2018-03-15T23:51:13.136Z,4.42
2018-03-15T23:53:42.912Z,4.33
2018-03-15T23:56:13.886Z,4.39
2018-03-15T23:58:45.842Z,4.34
